James E. Brown — WDH9622 — position and weather

sailwx.info

Track history (hours):
 
Tides and Currents Weather Stations Pressure Air Temp Water Temp Dewpoint Dewpoint Depression Visibility Wind Speed Wind Dir Waves Ship Positions

James E. Brown

Owner: Thomas J. Brown and Sons, Inc., Statten Island, NY. More information available from US FCC via Universal Licensing System and Coast Guard Vessel Documentation Center.

Last reported at 2017-Dec-11 17:00 UTC. Time now 2017-Dec-13 16:55 UTC.
Position N 40°40' W 074°01'.

Length 19 m; draft 4 m.

Type: Tug. MMSI: 367669920.

Date/timePositionNaut miles runAvg speedWind from/ knotsBaromVisibWave heightAir tempDewpointWater temp
2017-Dec-11 17:00N 40°40' W 074°01'0 0.0
2017-Dec-11 16:30N 40°40' W 074°01'2 3.8
2017-Dec-11 16:00N 40°40' W 074°03'1 1.5
2017-Dec-11 15:31N 40°41' W 074°04'0 0.1
2017-Dec-11 15:00N 40°41' W 074°04'0 0.0
2017-Dec-11 14:30N 40°41' W 074°04'0 0.0
2017-Dec-11 14:00N 40°41' W 074°04'  
2017-Dec-08 23:06N 40°40' W 074°04'0 5.2
2017-Dec-08 23:01N 40°41' W 074°04'0 0.5
2017-Dec-08 22:30N 40°40' W 074°04'1 1.4
2017-Dec-08 22:01N 40°40' W 074°04'3 5.3
2017-Dec-08 21:29N 40°39' W 074°07'2 3.2
2017-Dec-08 21:00N 40°40' W 074°09'2 2.9
2017-Dec-08 20:29N 40°41' W 074°09'0 0.0
2017-Dec-08 20:00N 40°41' W 074°09'0 0.2
2017-Dec-08 19:29N 40°41' W 074°09'0 0.9
2017-Dec-08 19:00N 40°41' W 074°09'0 0.0
2017-Dec-08 18:31N 40°41' W 074°09'0 0.7
2017-Dec-08 18:01N 40°41' W 074°09'0 0.0
2017-Dec-08 17:29N 40°41' W 074°09'0 0.0
2017-Dec-08 16:59N 40°41' W 074°09'1 2.3
2017-Dec-08 16:30N 40°39' W 074°09'2 3.4
2017-Dec-08 16:00N 40°39' W 074°06'2 4.6
2017-Dec-08 15:30N 40°40' W 074°04'1 1.3
2017-Dec-08 15:01N 40°41' W 074°04'0 0.2
2017-Dec-08 14:31N 40°41' W 074°04'1 1.4
2017-Dec-08 14:01N 40°40' W 074°04'2 4.8
2017-Dec-08 13:31N 40°38' W 074°04'2 0.1
2017-Dec-07 21:19N 40°39' W 074°05'3 9.4
2017-Dec-07 21:01N 40°41' W 074°01'3 5.4
2017-Dec-07 20:30N 40°42' W 073°58'1 2.0
2017-Dec-07 20:00N 40°42' W 073°60'3 5.9
2017-Dec-07 19:31N 40°41' W 074°03'1 2.1
2017-Dec-07 19:00N 40°41' W 074°04'3 4.9
2017-Dec-07 18:29N 40°39' W 074°07'3 3.9
2017-Dec-07 17:47N 40°41' W 074°04'0 0.1
2017-Dec-07 17:30N 40°41' W 074°04'2 4.3
2017-Dec-07 17:00N 40°39' W 074°02'1 1.2
2017-Dec-07 16:30N 40°39' W 074°02'1 2.4
2017-Dec-07 16:00N 40°40' W 074°03'2 3.1
2017-Dec-07 15:30N 40°41' W 074°04'0 0.9
2017-Dec-07 15:00N 40°40' W 074°04'2 4.5
2017-Dec-07 14:30N 40°39' W 074°02'0 0.0
2017-Dec-07 14:00N 40°39' W 074°02'0 0.9
2017-Dec-07 13:30N 40°39' W 074°02'2 4.6
2017-Dec-07 13:00N 40°41' W 074°04'  
2017-Dec-02 22:26N 40°39' W 074°11'2 3.5
2017-Dec-02 22:00N 40°37' W 074°12'9 1.2
2017-Dec-02 14:22N 40°41' W 074°02'3 8.1
2017-Dec-02 14:00N 40°42' W 073°58'0 0.1
2017-Dec-02 13:31N 40°42' W 073°58'0 0.1
2017-Dec-02 13:01N 40°42' W 073°58'0 0.3
2017-Dec-02 12:31N 40°42' W 073°58'8 0.5
2017-Dec-01 19:59N 40°41' W 074°08'0 0.4
2017-Dec-01 19:30N 40°41' W 074°08'0 0.0
2017-Dec-01 19:00N 40°41' W 074°08'1 1.2
2017-Dec-01 18:30N 40°42' W 074°09'1 1.1
2017-Dec-01 18:00N 40°41' W 074°08'1 1.5
2017-Dec-01 17:30N 40°40' W 074°08'2 4.1
2017-Dec-01 17:00N 40°39' W 074°07'  
Track history (hours):
 
Tides and Currents Weather Stations Pressure Air Temp Water Temp Dewpoint Dewpoint Depression Visibility Wind Speed Wind Dir Waves Ship Positions

James E. Brown

Owner: Thomas J. Brown and Sons, Inc., Statten Island, NY. More information available from US FCC via Universal Licensing System and Coast Guard Vessel Documentation Center.

Last reported at 2017-Dec-11 17:00 UTC. Time now 2017-Dec-13 16:55 UTC.
Position N 40°40' W 074°01'.

Length 19 m; draft 4 m.

Type: Tug. MMSI: 367669920.

Date/timePositionNaut miles runAvg speedWind from/ knotsBaromVisibWave heightAir tempDewpointWater temp
2017-Dec-11 17:00N 40°40' W 074°01'0 0.0
2017-Dec-11 16:30N 40°40' W 074°01'2 3.8
2017-Dec-11 16:00N 40°40' W 074°03'1 1.5
2017-Dec-11 15:31N 40°41' W 074°04'0 0.1
2017-Dec-11 15:00N 40°41' W 074°04'0 0.0
2017-Dec-11 14:30N 40°41' W 074°04'0 0.0
2017-Dec-11 14:00N 40°41' W 074°04'  
2017-Dec-08 23:06N 40°40' W 074°04'0 5.2
2017-Dec-08 23:01N 40°41' W 074°04'0 0.5
2017-Dec-08 22:30N 40°40' W 074°04'1 1.4
2017-Dec-08 22:01N 40°40' W 074°04'3 5.3
2017-Dec-08 21:29N 40°39' W 074°07'2 3.2
2017-Dec-08 21:00N 40°40' W 074°09'2 2.9
2017-Dec-08 20:29N 40°41' W 074°09'0 0.0
2017-Dec-08 20:00N 40°41' W 074°09'0 0.2
2017-Dec-08 19:29N 40°41' W 074°09'0 0.9
2017-Dec-08 19:00N 40°41' W 074°09'0 0.0
2017-Dec-08 18:31N 40°41' W 074°09'0 0.7
2017-Dec-08 18:01N 40°41' W 074°09'0 0.0
2017-Dec-08 17:29N 40°41' W 074°09'0 0.0
2017-Dec-08 16:59N 40°41' W 074°09'1 2.3
2017-Dec-08 16:30N 40°39' W 074°09'2 3.4
2017-Dec-08 16:00N 40°39' W 074°06'2 4.6
2017-Dec-08 15:30N 40°40' W 074°04'1 1.3
2017-Dec-08 15:01N 40°41' W 074°04'0 0.2
2017-Dec-08 14:31N 40°41' W 074°04'1 1.4
2017-Dec-08 14:01N 40°40' W 074°04'2 4.8
2017-Dec-08 13:31N 40°38' W 074°04'2 0.1
2017-Dec-07 21:19N 40°39' W 074°05'3 9.4
2017-Dec-07 21:01N 40°41' W 074°01'3 5.4
2017-Dec-07 20:30N 40°42' W 073°58'1 2.0
2017-Dec-07 20:00N 40°42' W 073°60'3 5.9
2017-Dec-07 19:31N 40°41' W 074°03'1 2.1
2017-Dec-07 19:00N 40°41' W 074°04'3 4.9
2017-Dec-07 18:29N 40°39' W 074°07'3 3.9
2017-Dec-07 17:47N 40°41' W 074°04'0 0.1
2017-Dec-07 17:30N 40°41' W 074°04'2 4.3
2017-Dec-07 17:00N 40°39' W 074°02'1 1.2
2017-Dec-07 16:30N 40°39' W 074°02'1 2.4
2017-Dec-07 16:00N 40°40' W 074°03'2 3.1
2017-Dec-07 15:30N 40°41' W 074°04'0 0.9
2017-Dec-07 15:00N 40°40' W 074°04'2 4.5
2017-Dec-07 14:30N 40°39' W 074°02'0 0.0
2017-Dec-07 14:00N 40°39' W 074°02'0 0.9
2017-Dec-07 13:30N 40°39' W 074°02'2 4.6
2017-Dec-07 13:00N 40°41' W 074°04'  
2017-Dec-02 22:26N 40°39' W 074°11'2 3.5
2017-Dec-02 22:00N 40°37' W 074°12'9 1.2
2017-Dec-02 14:22N 40°41' W 074°02'3 8.1
2017-Dec-02 14:00N 40°42' W 073°58'0 0.1
2017-Dec-02 13:31N 40°42' W 073°58'0 0.1
2017-Dec-02 13:01N 40°42' W 073°58'0 0.3
2017-Dec-02 12:31N 40°42' W 073°58'8 0.5
2017-Dec-01 19:59N 40°41' W 074°08'0 0.4
2017-Dec-01 19:30N 40°41' W 074°08'0 0.0
2017-Dec-01 19:00N 40°41' W 074°08'1 1.2
2017-Dec-01 18:30N 40°42' W 074°09'1 1.1
2017-Dec-01 18:00N 40°41' W 074°08'1 1.5
2017-Dec-01 17:30N 40°40' W 074°08'2 4.1
2017-Dec-01 17:00N 40°39' W 074°07'  

Dump ship's entire track history